createdAt,value
2016-07-31T00:01:00.321Z,87.91
2016-07-31T00:02:03.971Z,87.04
2016-07-31T00:03:07.964Z,87.91
2016-07-31T00:04:11.623Z,88.78
2016-07-31T00:05:15.280Z,88.01
2016-07-31T00:06:18.925Z,88.10
2016-07-31T00:07:22.553Z,87.71
2016-07-31T00:08:26.205Z,88.78
2016-07-31T00:10:37.986Z,87.91
2016-07-31T00:11:41.607Z,88.29
2016-07-31T00:12:45.454Z,88.68
2016-07-31T00:13:49.067Z,88.59
2016-07-31T00:14:52.714Z,88.49
2016-07-31T00:15:56.340Z,88.78
2016-07-31T00:16:59.989Z,87.81
2016-07-31T00:18:03.848Z,87.62
2016-07-31T00:19:07.506Z,87.62
2016-07-31T00:20:11.187Z,88.59
2016-07-31T00:21:14.856Z,89.07
2016-07-31T00:22:18.716Z,88.01
2016-07-31T00:23:22.364Z,88.87
2016-07-31T00:24:26.015Z,88.49
2016-07-31T00:25:29.686Z,88.39
2016-07-31T00:26:33.370Z,88.49
2016-07-31T00:27:37.030Z,88.49
2016-07-31T00:28:40.691Z,89.17
2016-07-31T00:29:44.335Z,88.49
2016-07-31T00:30:47.988Z,88.59
2016-07-31T00:31:51.880Z,88.10
2016-07-31T00:32:55.572Z,88.20
2016-07-31T00:33:59.241Z,88.20
2016-07-31T00:35:02.858Z,88.97
2016-07-31T00:36:06.514Z,88.10
2016-07-31T00:37:10.140Z,88.01
2016-07-31T00:38:13.787Z,88.20
2016-07-31T00:39:17.484Z,88.20
2016-07-31T00:40:21.144Z,88.97
2016-07-31T00:41:24.789Z,88.78
2016-07-31T00:42:28.445Z,88.49
2016-07-31T00:43:32.092Z,88.68
2016-07-31T00:44:35.756Z,89.26
2016-07-31T00:45:39.409Z,88.49
2016-07-31T00:46:43.072Z,88.97
2016-07-31T00:47:46.684Z,88.59
2016-07-31T00:48:50.355Z,88.39
2016-07-31T00:49:53.993Z,88.49
2016-07-31T00:50:57.659Z,89.17
2016-07-31T00:52:01.302Z,88.83
2016-07-31T00:53:04.953Z,89.12
2016-07-31T00:54:08.626Z,88.45
2016-07-31T00:55:12.261Z,88.59
2016-07-31T00:56:15.909Z,88.49
2016-07-31T00:57:19.575Z,88.54
2016-07-31T00:58:23.240Z,88.35
2016-07-31T00:59:26.906Z,88.45
2016-07-31T01:00:30.549Z,88.45
2016-07-31T01:01:34.200Z,88.54
2016-07-31T01:02:37.866Z,88.35
2016-07-31T01:03:41.738Z,88.39
2016-07-31T01:04:45.387Z,88.93
2016-07-31T01:05:49.056Z,89.03
2016-07-31T01:06:52.704Z,88.78
2016-07-31T01:07:56.364Z,89.12
2016-07-31T01:09:00.025Z,89.12
2016-07-31T01:10:03.682Z,89.03
2016-07-31T01:11:07.355Z,89.17
2016-07-31T01:12:11.039Z,89.12
2016-07-31T01:13:14.691Z,89.26
2016-07-31T01:14:18.330Z,88.97
2016-07-31T01:15:22.000Z,88.83
2016-07-31T01:16:25.658Z,88.83
2016-07-31T01:17:29.308Z,88.83
2016-07-31T01:18:32.969Z,89.26
2016-07-31T01:19:36.626Z,89.03
2016-07-31T01:20:40.297Z,88.93
2016-07-31T01:21:43.951Z,88.93
2016-07-31T01:22:47.609Z,88.93
2016-07-31T01:23:51.288Z,88.73
2016-07-31T01:24:54.940Z,89.07
2016-07-31T01:25:58.779Z,89.03
2016-07-31T01:27:02.423Z,89.12
2016-07-31T01:28:06.261Z,89.03
2016-07-31T01:29:09.921Z,89.03
2016-07-31T01:30:13.606Z,89.03
2016-07-31T01:31:17.250Z,88.73
2016-07-31T01:32:20.911Z,88.93
2016-07-31T01:33:24.582Z,88.93
2016-07-31T01:34:28.231Z,89.03
2016-07-31T01:35:31.903Z,88.83
2016-07-31T01:36:35.536Z,88.93
2016-07-31T01:37:39.191Z,88.93
2016-07-31T01:38:42.838Z,89.03
2016-07-31T01:39:46.505Z,89.61
2016-07-31T01:40:50.152Z,89.61
2016-07-31T01:41:53.818Z,89.70
2016-07-31T01:42:57.484Z,89.03
2016-07-31T01:44:01.183Z,89.03
2016-07-31T01:45:04.853Z,89.12
2016-07-31T01:46:08.505Z,89.12
2016-07-31T01:47:12.154Z,88.93
2016-07-31T01:48:15.807Z,88.93
2016-07-31T01:49:19.477Z,89.03
2016-07-31T01:50:23.137Z,88.93
2016-07-31T01:51:26.830Z,88.83
2016-07-31T01:52:31.377Z,89.03
2016-07-31T01:53:35.067Z,88.73
2016-07-31T01:54:38.929Z,88.83
2016-07-31T01:55:42.585Z,88.93
2016-07-31T01:56:46.253Z,88.83
2016-07-31T01:57:49.885Z,89.03
2016-07-31T01:58:53.547Z,89.22
2016-07-31T01:59:57.223Z,88.93
2016-07-31T02:01:00.871Z,88.93
2016-07-31T02:02:04.489Z,88.93
2016-07-31T02:03:08.157Z,89.03
2016-07-31T02:04:11.828Z,88.83
2016-07-31T02:05:15.501Z,88.83
2016-07-31T02:06:19.157Z,88.73
2016-07-31T02:07:22.821Z,89.03
2016-07-31T02:08:26.447Z,89.03
2016-07-31T02:09:30.296Z,89.03
2016-07-31T02:10:33.928Z,88.73
2016-07-31T02:11:37.809Z,89.03
2016-07-31T02:12:41.504Z,89.03
2016-07-31T02:13:45.171Z,89.51
2016-07-31T02:14:48.846Z,89.03
2016-07-31T02:15:52.505Z,89.22
2016-07-31T02:16:56.347Z,88.93
2016-07-31T02:17:59.994Z,88.83
2016-07-31T02:19:03.657Z,89.03
2016-07-31T02:20:07.304Z,88.93
2016-07-31T02:21:10.994Z,88.93
2016-07-31T02:22:14.605Z,88.93
2016-07-31T02:23:18.237Z,89.03
2016-07-31T02:24:21.913Z,89.03
2016-07-31T02:25:25.580Z,89.03
2016-07-31T02:26:29.242Z,88.93
2016-07-31T02:27:32.900Z,88.93
2016-07-31T02:28:36.594Z,89.03
2016-07-31T02:29:40.469Z,89.03
2016-07-31T02:30:44.147Z,88.83
2016-07-31T02:31:47.832Z,89.03
2016-07-31T02:32:51.486Z,89.12
2016-07-31T02:33:55.134Z,88.93
2016-07-31T02:34:58.835Z,88.93
2016-07-31T02:36:02.534Z,89.03
2016-07-31T02:37:06.182Z,88.73
2016-07-31T02:38:09.860Z,88.83
2016-07-31T02:39:13.529Z,88.64
2016-07-31T02:40:17.254Z,89.41
2016-07-31T02:41:21.113Z,89.03
2016-07-31T02:42:24.769Z,89.51
2016-07-31T02:44:31.649Z,88.83
2016-07-31T02:45:35.323Z,89.41
2016-07-31T02:46:38.978Z,89.41
2016-07-31T02:47:42.625Z,89.41
2016-07-31T02:48:46.301Z,89.12
2016-07-31T02:49:49.936Z,89.51
2016-07-31T02:50:53.619Z,89.22
2016-07-31T02:51:57.269Z,89.51
2016-07-31T02:53:01.110Z,89.22
2016-07-31T02:54:04.756Z,89.22
2016-07-31T02:55:08.393Z,89.41
2016-07-31T02:56:12.862Z,89.22
2016-07-31T02:57:16.518Z,89.41
2016-07-31T02:59:24.171Z,89.41
2016-07-31T03:00:27.844Z,89.51
2016-07-31T03:01:31.499Z,89.41
2016-07-31T03:02:35.181Z,89.41
2016-07-31T03:03:38.818Z,89.12
2016-07-31T03:04:42.488Z,89.31
2016-07-31T03:05:46.165Z,89.22
2016-07-31T03:06:49.794Z,89.51
2016-07-31T03:07:53.458Z,88.93
2016-07-31T03:08:57.101Z,89.12
2016-07-31T03:10:00.730Z,89.70
2016-07-31T03:11:04.402Z,89.41
2016-07-31T03:12:08.055Z,89.07
2016-07-31T03:13:11.712Z,89.22
2016-07-31T03:14:15.354Z,89.31
2016-07-31T03:15:19.024Z,89.12
2016-07-31T03:16:22.686Z,89.79
2016-07-31T03:17:26.375Z,89.51
2016-07-31T03:18:30.032Z,89.31
2016-07-31T03:19:33.671Z,89.89
2016-07-31T03:20:37.334Z,89.61
2016-07-31T03:21:40.980Z,89.51
2016-07-31T03:22:44.849Z,89.31
2016-07-31T03:23:48.482Z,89.79
2016-07-31T03:24:52.184Z,89.27
2016-07-31T03:25:55.825Z,89.70
2016-07-31T03:26:59.510Z,89.79
2016-07-31T03:28:03.131Z,89.47
2016-07-31T03:29:06.782Z,89.51
2016-07-31T03:30:10.427Z,89.51
2016-07-31T03:31:14.021Z,89.51
2016-07-31T03:32:17.694Z,89.79
2016-07-31T03:33:21.537Z,89.61
2016-07-31T03:34:25.174Z,89.79
2016-07-31T03:35:28.850Z,89.70
2016-07-31T03:36:32.510Z,89.79
2016-07-31T03:37:36.140Z,89.56
2016-07-31T03:38:39.800Z,89.70
2016-07-31T03:39:43.427Z,89.79
2016-07-31T03:40:47.116Z,89.31
2016-07-31T03:41:50.771Z,89.31
2016-07-31T03:42:54.431Z,89.31
2016-07-31T03:43:58.112Z,89.41
2016-07-31T03:45:01.778Z,89.61
2016-07-31T03:46:05.420Z,90.09
2016-07-31T03:47:09.050Z,89.95
2016-07-31T03:48:12.710Z,90.09
2016-07-31T03:49:16.392Z,89.79
2016-07-31T03:50:20.035Z,89.79
2016-07-31T03:51:23.676Z,89.75
2016-07-31T03:52:27.351Z,90.09
2016-07-31T03:53:31.019Z,89.89
2016-07-31T03:54:34.696Z,89.99
2016-07-31T03:55:38.371Z,89.99
2016-07-31T03:56:41.992Z,89.79
2016-07-31T03:57:45.641Z,89.89
2016-07-31T03:58:49.306Z,89.89
2016-07-31T03:59:52.950Z,90.09
2016-07-31T04:00:56.605Z,89.65
2016-07-31T04:02:00.240Z,89.70
2016-07-31T04:03:03.888Z,90.09
2016-07-31T04:04:07.544Z,89.79
2016-07-31T04:05:11.218Z,89.89
2016-07-31T04:06:14.864Z,90.09
2016-07-31T04:07:18.530Z,89.70
2016-07-31T04:08:22.208Z,89.56
2016-07-31T04:09:25.869Z,89.41
2016-07-31T04:10:29.515Z,89.22
2016-07-31T04:11:33.184Z,89.70
2016-07-31T04:12:36.848Z,89.70
2016-07-31T04:14:43.782Z,89.51
2016-07-31T04:15:47.447Z,89.31
2016-07-31T04:16:51.104Z,89.85
2016-07-31T04:17:54.764Z,89.70
2016-07-31T04:18:58.439Z,89.61
2016-07-31T04:20:02.110Z,89.41
2016-07-31T04:21:05.817Z,89.41
2016-07-31T04:22:09.460Z,89.41
2016-07-31T04:23:13.146Z,89.65
2016-07-31T04:24:16.812Z,89.51
2016-07-31T04:25:20.484Z,89.56
2016-07-31T04:26:24.171Z,89.17
2016-07-31T04:27:27.823Z,89.17
2016-07-31T04:28:31.492Z,89.03
2016-07-31T04:29:35.120Z,89.31
2016-07-31T04:30:38.756Z,89.22
2016-07-31T04:31:42.452Z,89.22
2016-07-31T04:32:46.115Z,89.41
2016-07-31T04:33:49.773Z,89.31
2016-07-31T04:34:53.438Z,89.37
2016-07-31T04:35:57.089Z,89.37
2016-07-31T04:37:00.775Z,89.41
2016-07-31T04:38:04.443Z,89.07
2016-07-31T04:39:08.125Z,89.41
2016-07-31T04:40:11.775Z,89.27
2016-07-31T04:41:15.418Z,88.83
2016-07-31T04:42:19.088Z,88.83
2016-07-31T04:43:22.755Z,88.79
2016-07-31T04:44:26.602Z,88.93
2016-07-31T04:45:30.287Z,88.93
2016-07-31T04:46:33.948Z,88.83
2016-07-31T04:47:37.796Z,88.83
2016-07-31T04:48:41.421Z,88.83
2016-07-31T04:49:45.114Z,88.83
2016-07-31T04:50:48.779Z,89.03
2016-07-31T04:51:52.416Z,88.83
2016-07-31T04:52:56.088Z,88.93
2016-07-31T04:53:59.760Z,88.93
2016-07-31T04:55:03.389Z,89.07
2016-07-31T04:56:07.069Z,89.12
2016-07-31T04:57:10.759Z,88.73
2016-07-31T04:58:14.425Z,88.45
2016-07-31T04:59:18.087Z,89.22
2016-07-31T05:00:21.753Z,89.12
2016-07-31T05:01:25.421Z,88.40
2016-07-31T05:02:29.067Z,89.22
2016-07-31T05:03:32.706Z,88.45
2016-07-31T05:04:37.252Z,88.25
2016-07-31T05:05:40.808Z,88.64
2016-07-31T05:06:45.354Z,88.35
2016-07-31T05:07:48.977Z,88.35
2016-07-31T05:08:52.653Z,88.73
2016-07-31T05:09:56.305Z,88.35
2016-07-31T05:10:59.953Z,88.35
2016-07-31T05:12:03.590Z,88.25
2016-07-31T05:13:07.263Z,88.35
2016-07-31T05:14:10.920Z,88.54
2016-07-31T05:15:14.592Z,88.35
2016-07-31T05:16:18.292Z,88.35
2016-07-31T05:17:21.941Z,88.45
2016-07-31T05:18:25.573Z,88.45
2016-07-31T05:19:29.234Z,88.54
2016-07-31T05:20:32.913Z,88.35
2016-07-31T05:21:36.587Z,88.45
2016-07-31T05:22:40.223Z,88.73
2016-07-31T05:23:43.941Z,88.35
2016-07-31T05:24:47.608Z,88.35
2016-07-31T05:25:51.278Z,88.45
2016-07-31T05:26:54.937Z,88.35
2016-07-31T05:27:58.586Z,88.54
2016-07-31T05:30:05.513Z,88.25
2016-07-31T05:31:09.377Z,88.54
2016-07-31T05:32:13.016Z,87.58
2016-07-31T05:33:16.847Z,87.87
2016-07-31T05:34:20.506Z,88.15
2016-07-31T05:35:24.150Z,88.35
2016-07-31T05:36:27.824Z,87.67
2016-07-31T05:37:31.668Z,87.48
2016-07-31T05:38:35.313Z,88.25
2016-07-31T05:39:39.002Z,87.96
2016-07-31T05:40:42.658Z,88.15
2016-07-31T05:41:46.339Z,88.15
2016-07-31T05:42:50.008Z,88.25
2016-07-31T05:43:53.842Z,87.77
2016-07-31T05:44:57.490Z,87.96
2016-07-31T05:46:01.153Z,87.77
2016-07-31T05:47:04.798Z,88.06
2016-07-31T05:48:08.432Z,87.77
2016-07-31T05:49:12.096Z,87.67
2016-07-31T05:50:15.737Z,87.96
2016-07-31T05:51:19.404Z,88.25
2016-07-31T05:52:23.061Z,87.67
2016-07-31T05:53:26.705Z,87.77
2016-07-31T05:54:30.555Z,88.15
2016-07-31T05:55:34.210Z,88.06
2016-07-31T05:56:37.892Z,87.87
2016-07-31T05:57:41.542Z,87.87
2016-07-31T05:58:45.225Z,87.67
2016-07-31T05:59:48.927Z,87.87
2016-07-31T06:00:52.587Z,87.96
2016-07-31T06:01:56.273Z,87.87
2016-07-31T06:02:59.965Z,88.45
2016-07-31T06:04:03.629Z,87.87
2016-07-31T06:05:07.274Z,88.25
2016-07-31T06:06:10.918Z,88.45
2016-07-31T06:07:14.575Z,88.15
2016-07-31T06:08:18.208Z,87.87
2016-07-31T06:09:21.859Z,88.15
2016-07-31T06:10:25.532Z,88.15
2016-07-31T06:11:29.180Z,87.58
2016-07-31T06:12:32.847Z,87.87
2016-07-31T06:13:36.507Z,87.96
2016-07-31T06:14:40.170Z,87.77
2016-07-31T06:15:43.824Z,87.87
2016-07-31T06:16:47.491Z,87.96
2016-07-31T06:17:51.182Z,87.96
2016-07-31T06:18:54.835Z,87.96
2016-07-31T06:19:58.491Z,87.77
2016-07-31T06:21:02.182Z,88.15
2016-07-31T06:22:05.817Z,88.45
2016-07-31T06:23:09.487Z,87.67
2016-07-31T06:24:13.141Z,87.96
2016-07-31T06:25:16.807Z,88.15
2016-07-31T06:26:20.458Z,88.06
2016-07-31T06:27:24.116Z,87.87
2016-07-31T06:28:27.768Z,87.96
2016-07-31T06:29:31.459Z,87.96
2016-07-31T06:30:35.308Z,87.96
2016-07-31T06:31:38.973Z,87.96
2016-07-31T06:32:42.646Z,88.15
2016-07-31T06:33:46.335Z,87.96
2016-07-31T06:34:50.040Z,87.96
2016-07-31T06:35:53.727Z,87.96
2016-07-31T06:36:57.383Z,87.19
2016-07-31T06:38:01.028Z,87.87
2016-07-31T06:39:04.718Z,87.77
2016-07-31T06:40:08.372Z,87.29
2016-07-31T06:41:12.205Z,87.19
2016-07-31T06:42:15.849Z,87.58
2016-07-31T06:43:19.525Z,87.48
2016-07-31T06:45:26.461Z,87.58
2016-07-31T06:46:30.117Z,87.67
2016-07-31T06:47:33.792Z,87.48
2016-07-31T06:48:37.428Z,86.90
2016-07-31T06:49:41.084Z,87.19
2016-07-31T06:50:44.753Z,87.38
2016-07-31T06:51:48.420Z,87.58
2016-07-31T06:52:52.102Z,87.19
2016-07-31T06:53:55.754Z,87.19
2016-07-31T06:54:59.419Z,87.29
2016-07-31T06:56:03.091Z,87.19
2016-07-31T06:57:06.733Z,86.80
2016-07-31T06:58:10.367Z,87.00
2016-07-31T06:59:14.014Z,87.09
2016-07-31T07:00:17.651Z,87.29
2016-07-31T07:01:21.337Z,87.00
2016-07-31T07:02:25.000Z,87.48
2016-07-31T07:03:28.668Z,87.48
2016-07-31T07:04:32.341Z,86.90
2016-07-31T07:05:36.009Z,86.80
2016-07-31T07:06:39.871Z,86.61
2016-07-31T07:07:43.538Z,87.00
2016-07-31T07:08:47.172Z,86.80
2016-07-31T07:09:51.056Z,86.90
2016-07-31T07:10:54.681Z,86.90
2016-07-31T07:11:58.331Z,86.90
2016-07-31T07:13:02.004Z,86.52
2016-07-31T07:14:05.689Z,87.00
2016-07-31T07:15:09.346Z,86.52
2016-07-31T07:16:12.999Z,86.61
2016-07-31T07:17:16.671Z,86.90
2016-07-31T07:18:20.498Z,86.71
2016-07-31T07:19:24.174Z,86.32
2016-07-31T07:20:27.869Z,86.52
2016-07-31T07:21:31.641Z,86.03
2016-07-31T07:22:35.288Z,86.42
2016-07-31T07:23:38.942Z,86.03
2016-07-31T07:24:42.617Z,86.13
2016-07-31T07:25:46.290Z,86.03
2016-07-31T07:26:49.967Z,86.22
2016-07-31T07:27:53.628Z,86.13
2016-07-31T07:28:57.289Z,85.78
2016-07-31T07:30:00.955Z,85.64
2016-07-31T07:31:04.626Z,85.55
2016-07-31T07:32:08.300Z,85.21
2016-07-31T07:33:12.048Z,84.63
2016-07-31T07:34:15.720Z,84.91
2016-07-31T07:35:19.366Z,84.91
2016-07-31T07:36:23.037Z,85.01
2016-07-31T07:37:26.885Z,84.82
2016-07-31T07:38:30.494Z,84.82
2016-07-31T07:39:34.128Z,84.63
2016-07-31T07:40:37.800Z,84.33
2016-07-31T07:41:41.472Z,84.05
2016-07-31T07:42:45.159Z,83.56
2016-07-31T07:43:48.819Z,83.95
2016-07-31T07:44:52.506Z,84.14
2016-07-31T07:45:56.193Z,84.14
2016-07-31T07:46:59.857Z,83.47
2016-07-31T07:48:03.513Z,83.47
2016-07-31T07:49:07.184Z,83.37
2016-07-31T07:50:10.825Z,83.66
2016-07-31T07:51:14.492Z,83.56
2016-07-31T07:52:18.362Z,83.37
2016-07-31T07:53:22.014Z,83.37
2016-07-31T07:54:25.689Z,84.14
2016-07-31T07:55:29.343Z,83.75
2016-07-31T07:56:33.028Z,83.85
2016-07-31T07:57:36.687Z,83.75
2016-07-31T07:58:40.353Z,83.95
2016-07-31T07:59:44.015Z,84.24
2016-07-31T08:00:47.661Z,83.56
2016-07-31T08:01:51.339Z,83.37
2016-07-31T08:02:55.222Z,84.05
2016-07-31T08:03:58.860Z,83.85
2016-07-31T08:05:02.776Z,83.56
2016-07-31T08:06:06.451Z,83.47
2016-07-31T08:07:10.124Z,83.47
2016-07-31T08:08:13.764Z,83.66
2016-07-31T08:09:17.436Z,83.18
2016-07-31T08:10:21.132Z,83.56
2016-07-31T08:11:24.808Z,83.37
2016-07-31T08:12:28.471Z,83.22
2016-07-31T08:13:32.156Z,82.79
2016-07-31T08:15:39.069Z,82.79
2016-07-31T08:16:42.727Z,82.98
2016-07-31T08:17:46.410Z,83.37
2016-07-31T08:18:50.053Z,82.98
2016-07-31T08:19:53.704Z,83.08
2016-07-31T08:20:57.323Z,83.22
2016-07-31T08:22:00.987Z,82.60
2016-07-31T08:23:04.666Z,83.27
2016-07-31T08:24:08.333Z,82.79
2016-07-31T08:25:12.023Z,82.89
2016-07-31T08:26:15.693Z,82.98
2016-07-31T08:27:19.346Z,82.98
2016-07-31T08:28:22.992Z,83.03
2016-07-31T08:29:26.656Z,83.03
2016-07-31T08:30:30.346Z,82.93
2016-07-31T08:31:34.029Z,82.73
2016-07-31T08:32:37.680Z,82.83
2016-07-31T08:33:41.367Z,82.64
2016-07-31T08:34:45.023Z,82.73
2016-07-31T08:35:48.688Z,82.45
2016-07-31T08:36:52.346Z,81.96
2016-07-31T08:37:56.036Z,82.35
2016-07-31T08:38:59.711Z,82.15
2016-07-31T08:40:03.369Z,81.38
2016-07-31T08:41:07.070Z,81.67
2016-07-31T08:42:10.736Z,81.71
2016-07-31T08:43:14.457Z,81.62
2016-07-31T08:44:18.114Z,81.23
2016-07-31T08:45:21.784Z,80.65
2016-07-31T08:46:25.498Z,80.65
2016-07-31T08:47:29.171Z,80.65
2016-07-31T08:48:32.788Z,80.65
2016-07-31T08:49:36.431Z,80.55
2016-07-31T08:50:40.090Z,81.62
2016-07-31T08:51:43.753Z,81.13
2016-07-31T08:52:47.439Z,81.23
2016-07-31T08:53:51.084Z,81.23
2016-07-31T08:54:54.960Z,81.23
2016-07-31T08:55:58.638Z,81.13
2016-07-31T08:57:02.305Z,80.99
2016-07-31T08:58:06.166Z,81.29
2016-07-31T08:59:09.856Z,81.77
2016-07-31T09:00:13.511Z,81.29
2016-07-31T09:01:17.149Z,80.90
2016-07-31T09:02:20.816Z,81.29
2016-07-31T09:03:24.461Z,81.09
2016-07-31T09:04:28.102Z,80.99
2016-07-31T09:05:31.967Z,81.77
2016-07-31T09:06:35.640Z,81.19
2016-07-31T09:07:39.488Z,81.09
2016-07-31T09:08:43.138Z,81.09
2016-07-31T09:09:46.769Z,81.29
2016-07-31T09:10:50.421Z,81.29
2016-07-31T09:11:54.102Z,81.29
2016-07-31T09:12:57.747Z,81.38
2016-07-31T09:14:01.406Z,81.29
2016-07-31T09:15:05.056Z,80.61
2016-07-31T09:16:08.729Z,81.38
2016-07-31T09:17:12.590Z,81.48
2016-07-31T09:18:16.257Z,80.65
2016-07-31T09:19:20.134Z,79.78
2016-07-31T09:20:23.795Z,79.78
2016-07-31T09:21:27.488Z,79.43
2016-07-31T09:22:31.216Z,79.43
2016-07-31T09:23:34.880Z,78.56
2016-07-31T09:24:38.753Z,77.98
2016-07-31T09:25:42.422Z,77.11
2016-07-31T09:26:46.115Z,77.44
2016-07-31T09:27:49.755Z,77.63
2016-07-31T09:28:53.441Z,77.82
2016-07-31T09:31:00.421Z,76.21
2016-07-31T09:32:04.064Z,76.41
2016-07-31T09:33:07.945Z,75.83
2016-07-31T09:34:11.600Z,75.83
2016-07-31T09:35:15.502Z,75.54
2016-07-31T09:36:19.177Z,75.34
2016-07-31T09:37:23.071Z,74.41
2016-07-31T09:38:26.753Z,73.77
2016-07-31T09:39:30.446Z,73.09
2016-07-31T09:40:34.105Z,73.96
2016-07-31T09:41:37.764Z,72.89
2016-07-31T09:42:41.435Z,72.06
2016-07-31T09:43:45.127Z,71.86
2016-07-31T09:44:48.809Z,71.96
2016-07-31T09:45:52.459Z,71.96
2016-07-31T09:46:56.303Z,71.86
2016-07-31T09:47:59.982Z,72.71
2016-07-31T09:49:03.617Z,72.80
2016-07-31T09:50:07.279Z,72.61
2016-07-31T09:51:10.931Z,73.28
2016-07-31T09:52:14.627Z,73.48
2016-07-31T09:53:18.256Z,73.54
2016-07-31T09:54:21.929Z,74.12
2016-07-31T09:55:25.580Z,74.02
2016-07-31T09:56:29.206Z,74.32
2016-07-31T09:57:32.866Z,74.02
2016-07-31T09:58:36.486Z,74.47
2016-07-31T09:59:40.155Z,75.24
2016-07-31T10:00:43.812Z,74.66
2016-07-31T10:01:47.472Z,74.76
2016-07-31T10:02:51.137Z,75.44
2016-07-31T10:03:54.846Z,75.73
2016-07-31T10:04:58.530Z,75.63
2016-07-31T10:06:02.376Z," 0.00"
2016-07-31T10:07:06.030Z,75.63
2016-07-31T10:08:09.712Z,76.12
2016-07-31T10:09:13.351Z,75.50
2016-07-31T10:10:17.042Z,75.70
2016-07-31T10:11:20.707Z,76.28
2016-07-31T10:12:24.381Z,75.98
2016-07-31T10:13:28.048Z,76.28
2016-07-31T10:14:31.723Z,76.56
2016-07-31T10:15:35.376Z,76.76
2016-07-31T10:16:39.067Z,76.91
2016-07-31T10:17:42.723Z,76.72
2016-07-31T10:18:46.398Z,77.11
2016-07-31T10:19:50.092Z,77.11
2016-07-31T10:20:53.778Z,77.59
2016-07-31T10:21:57.440Z,77.50
2016-07-31T10:23:01.105Z,78.08
2016-07-31T10:24:04.798Z,77.50
2016-07-31T10:25:08.492Z,78.08
2016-07-31T10:26:12.114Z,77.88
2016-07-31T10:27:15.774Z,77.78
2016-07-31T10:38:55.846Z,80.01
2016-07-31T10:40:18.352Z,79.33
2016-07-31T10:41:21.795Z,78.56
2016-07-31T10:42:25.607Z,78.85
2016-07-31T10:43:29.222Z,78.36
2016-07-31T10:44:32.856Z,78.56
2016-07-31T10:45:36.502Z,78.75
2016-07-31T10:46:40.184Z,78.36
2016-07-31T10:47:43.853Z,78.36
2016-07-31T10:48:47.480Z,78.56
2016-07-31T10:49:51.182Z,78.66
2016-07-31T10:50:54.874Z,78.08
2016-07-31T10:51:58.527Z,78.17
2016-07-31T10:53:02.198Z,78.17
2016-07-31T10:54:05.861Z,78.17
2016-07-31T10:55:09.535Z,78.46
2016-07-31T10:56:13.225Z,78.94
2016-07-31T10:57:16.926Z,78.36
2016-07-31T10:58:20.596Z,78.36
2016-07-31T10:59:24.313Z,78.75
2016-07-31T11:01:31.244Z,78.94
2016-07-31T11:02:34.927Z,78.66
2016-07-31T11:03:38.626Z,78.56
2016-07-31T11:04:42.284Z,78.66
2016-07-31T11:05:45.938Z,78.75
2016-07-31T11:06:49.649Z,78.75
2016-07-31T11:07:53.280Z,78.56
2016-07-31T11:08:56.923Z,78.66
2016-07-31T11:10:00.617Z,78.46
2016-07-31T11:11:04.325Z,78.75
2016-07-31T11:12:07.997Z,78.85
2016-07-31T11:13:11.669Z,78.66
2016-07-31T11:14:15.541Z,78.85
2016-07-31T11:16:22.505Z,78.85
2016-07-31T11:17:26.184Z,78.75
2016-07-31T11:18:30.077Z,78.66
2016-07-31T11:19:33.738Z,79.43
2016-07-31T11:20:37.429Z,79.52
2016-07-31T11:21:41.101Z,79.43
2016-07-31T11:22:44.800Z,79.04
2016-07-31T11:23:48.927Z,78.94
2016-07-31T11:24:52.596Z,79.43
2016-07-31T11:25:56.284Z,79.43
2016-07-31T11:27:00.131Z,79.24
2016-07-31T11:28:03.788Z,79.14
2016-07-31T11:29:07.474Z,78.75
2016-07-31T11:30:11.155Z,78.66
2016-07-31T11:31:14.803Z,78.94
2016-07-31T11:32:18.480Z,79.14
2016-07-31T11:33:22.168Z,79.24
2016-07-31T11:34:25.861Z,79.04
2016-07-31T11:35:29.588Z,78.75
2016-07-31T11:36:33.475Z,78.75
2016-07-31T11:37:37.173Z,78.85
2016-07-31T11:38:40.856Z,78.46
2016-07-31T11:39:44.571Z,78.36
2016-07-31T11:40:48.282Z,78.08
2016-07-31T11:41:51.927Z,77.82
2016-07-31T11:42:55.594Z,77.92
2016-07-31T11:43:59.304Z,77.82
2016-07-31T11:45:02.968Z,77.63
2016-07-31T11:46:06.633Z,77.82
2016-07-31T11:47:10.322Z,77.34
2016-07-31T11:48:13.991Z,77.69
2016-07-31T11:49:17.688Z,77.63
2016-07-31T11:50:21.534Z,77.78
2016-07-31T11:51:25.217Z,77.30
2016-07-31T11:52:28.881Z,77.50
2016-07-31T11:53:32.550Z,78.17
2016-07-31T11:54:36.207Z,77.40
2016-07-31T11:55:39.872Z,78.08
2016-07-31T11:56:43.628Z,77.69
2016-07-31T11:57:47.329Z,77.88
2016-07-31T11:58:51.015Z,77.88
2016-07-31T11:59:54.684Z,78.17
2016-07-31T12:00:58.364Z,77.20
2016-07-31T12:02:02.052Z,77.30
2016-07-31T12:03:05.690Z,77.11
2016-07-31T12:04:09.409Z,77.11
2016-07-31T12:05:13.068Z,77.30
2016-07-31T12:06:16.760Z,77.30
2016-07-31T12:07:20.416Z,77.50
2016-07-31T12:08:24.082Z,77.50
2016-07-31T12:09:27.773Z,78.08
2016-07-31T12:10:31.407Z,77.88
2016-07-31T12:11:35.089Z,78.46
2016-07-31T12:12:38.786Z,78.17
2016-07-31T12:13:42.455Z,78.33
2016-07-31T12:14:46.434Z,77.45
2016-07-31T12:15:50.091Z,77.45
2016-07-31T12:16:53.766Z,78.33
2016-07-31T12:17:58.349Z,78.13
2016-07-31T12:19:01.986Z,78.33
2016-07-31T12:20:05.681Z,78.33
2016-07-31T12:21:09.342Z,78.03
2016-07-31T12:22:13.022Z,78.33
2016-07-31T12:23:16.676Z,78.42
2016-07-31T12:24:20.449Z,78.03
2016-07-31T12:25:24.153Z,78.33
2016-07-31T12:26:27.919Z,78.81
2016-07-31T12:27:31.622Z,78.81
2016-07-31T12:28:35.486Z,78.61
2016-07-31T12:29:39.180Z,78.61
2016-07-31T12:31:46.142Z,78.71
2016-07-31T12:32:49.804Z,78.33
2016-07-31T12:33:53.469Z,78.09
2016-07-31T12:34:57.177Z,78.42
2016-07-31T12:36:00.876Z,78.38
2016-07-31T12:37:04.569Z,78.58
2016-07-31T12:38:08.267Z,78.77
2016-07-31T12:39:11.939Z,78.71
2016-07-31T12:40:15.642Z,78.42
2016-07-31T12:41:19.334Z,78.71
2016-07-31T12:42:23.025Z,78.71
2016-07-31T12:43:26.713Z,78.52
2016-07-31T12:44:30.369Z,78.33
2016-07-31T12:45:34.070Z,77.65
2016-07-31T12:46:37.766Z,77.45
2016-07-31T12:47:41.404Z,77.94
2016-07-31T12:48:45.103Z,77.75
2016-07-31T12:49:48.774Z,77.55
2016-07-31T12:50:52.429Z,77.55
2016-07-31T12:51:56.104Z,77.26
2016-07-31T12:52:59.773Z,77.55
2016-07-31T12:54:03.623Z,76.68
2016-07-31T12:55:07.315Z,77.40
2016-07-31T12:56:10.993Z,76.91
2016-07-31T12:57:14.683Z,76.91
2016-07-31T12:58:18.339Z,76.72
2016-07-31T12:59:21.997Z,76.62
2016-07-31T13:00:25.715Z,76.33
2016-07-31T13:01:29.402Z,76.33
2016-07-31T13:02:33.070Z,75.85
2016-07-31T13:03:36.774Z,76.33
2016-07-31T13:04:40.484Z,76.14
2016-07-31T13:05:44.183Z,76.53
2016-07-31T13:06:47.863Z,75.65
2016-07-31T13:07:51.542Z,76.53
2016-07-31T13:08:55.231Z,76.53
2016-07-31T13:09:58.930Z,76.62
2016-07-31T13:11:02.620Z,76.43
2016-07-31T13:12:06.290Z,76.24
2016-07-31T13:13:09.975Z,76.91
2016-07-31T13:14:13.664Z,76.68
2016-07-31T13:15:17.342Z,76.59
2016-07-31T13:16:21.007Z,76.97
2016-07-31T13:17:24.698Z,76.62
2016-07-31T13:18:28.398Z,76.24
2016-07-31T13:19:32.120Z,76.14
2016-07-31T13:20:35.783Z,76.33
2016-07-31T13:21:39.479Z,76.33
2016-07-31T13:22:43.198Z,75.85
2016-07-31T13:23:46.906Z,75.65
2016-07-31T13:24:50.602Z,75.17
2016-07-31T13:25:54.261Z,75.21
2016-07-31T13:26:57.946Z,74.15
2016-07-31T13:28:01.804Z,74.34
2016-07-31T13:29:05.471Z,74.15
2016-07-31T13:30:09.146Z,73.60
2016-07-31T13:31:12.809Z,73.66
2016-07-31T13:32:16.455Z,74.24
2016-07-31T13:33:20.149Z,73.75
2016-07-31T13:34:23.825Z,73.66
2016-07-31T13:35:27.499Z,72.53
2016-07-31T13:36:31.148Z,72.34
2016-07-31T13:37:35.046Z,71.76
2016-07-31T13:38:38.692Z,71.95
2016-07-31T13:39:42.394Z,71.18
2016-07-31T13:40:46.083Z,71.66
2016-07-31T13:41:49.775Z,72.05
2016-07-31T13:42:53.636Z,72.44
2016-07-31T13:43:57.280Z,72.44
2016-07-31T13:45:00.940Z,72.34
2016-07-31T13:47:07.867Z,72.73
2016-07-31T13:48:11.542Z,72.34
2016-07-31T13:49:15.240Z,71.95
2016-07-31T13:50:19.140Z,72.15
2016-07-31T13:51:22.830Z,72.05
2016-07-31T13:52:26.485Z,71.95
2016-07-31T13:53:30.184Z,71.28
2016-07-31T13:54:33.891Z,71.08
2016-07-31T13:55:37.585Z,70.56
2016-07-31T13:56:41.232Z,70.70
2016-07-31T13:57:44.928Z,70.76
2016-07-31T13:58:48.608Z,70.37
2016-07-31T13:59:52.287Z,70.37
2016-07-31T14:00:55.977Z,71.53
2016-07-31T14:01:59.659Z,71.04
2016-07-31T14:03:03.364Z,71.04
2016-07-31T14:04:07.038Z,70.95